createdAt,value
2017-10-19T00:00:48.014Z,10.55
2017-10-19T00:03:15.812Z,10.18
2017-10-19T00:05:44.466Z,9.73
2017-10-19T00:08:12.332Z,11.10
2017-10-19T00:10:40.200Z,11.43
2017-10-19T00:13:08.068Z,11.25
2017-10-19T00:15:35.934Z,10.65
2017-10-19T00:18:03.802Z,11.40
2017-10-19T00:20:31.669Z,9.57
2017-10-19T00:22:59.466Z,11.32
2017-10-19T00:25:28.121Z,11.52
2017-10-19T00:27:55.993Z,12.25
2017-10-19T00:30:23.855Z,11.10
2017-10-19T00:32:51.723Z,11.48
2017-10-19T00:35:19.590Z,11.05
2017-10-19T00:37:47.458Z,10.60
2017-10-19T00:40:15.324Z,9.57
2017-10-19T00:42:43.193Z,9.77
2017-10-19T00:45:11.062Z,10.55
2017-10-19T00:47:38.932Z,8.70
2017-10-19T00:50:06.798Z,9.55
2017-10-19T00:52:34.663Z,9.88
2017-10-19T00:55:02.530Z,9.73
2017-10-19T00:57:30.401Z,9.90
2017-10-19T00:59:58.266Z,9.68
2017-10-19T01:02:26.135Z,9.90
2017-10-19T01:04:53.998Z,8.98
2017-10-19T01:07:21.867Z,10.07
2017-10-19T01:09:49.733Z,9.32
2017-10-19T01:12:17.599Z,8.77
2017-10-19T01:14:45.474Z,7.90
2017-10-19T01:17:13.334Z,9.57
2017-10-19T01:19:41.203Z,8.15
2017-10-19T01:22:09.069Z,7.03
2017-10-19T01:24:36.936Z,8.73
2017-10-19T01:27:04.804Z,7.85
2017-10-19T01:29:32.671Z,10.38
2017-10-19T01:32:00.640Z,10.43
2017-10-19T01:34:28.611Z,10.77
2017-10-19T01:36:56.480Z,10.25
2017-10-19T01:39:24.345Z,11.88
2017-10-19T01:41:52.213Z,11.95
2017-10-19T01:44:20.080Z,12.65
2017-10-19T01:46:47.947Z,13.20
2017-10-19T01:49:15.816Z,11.65
2017-10-19T01:51:43.682Z,12.00
2017-10-19T01:54:11.548Z,11.93
2017-10-19T01:56:39.416Z,10.57
2017-10-19T01:59:07.284Z,9.57
2017-10-19T02:01:35.151Z,10.00
2017-10-19T02:04:03.021Z,12.77
2017-10-19T02:06:30.885Z,12.00
2017-10-19T02:08:58.753Z,12.70
2017-10-19T02:11:26.620Z,10.40
2017-10-19T02:13:54.488Z,12.27
2017-10-19T02:16:22.355Z,12.57
2017-10-19T02:18:50.221Z,11.45
2017-10-19T02:21:18.090Z,10.27
2017-10-19T02:23:45.957Z,12.00
2017-10-19T02:26:13.823Z,10.98
2017-10-19T02:28:41.691Z,11.60
2017-10-19T02:31:09.558Z,11.60
2017-10-19T02:33:37.426Z,11.48
2017-10-19T02:36:05.293Z,11.57
2017-10-19T02:38:33.160Z,12.77
2017-10-19T02:41:01.028Z,13.50
2017-10-19T02:43:28.895Z,11.85
2017-10-19T02:45:56.762Z,12.18
2017-10-19T02:48:24.629Z,11.65
2017-10-19T02:50:52.497Z,11.30
2017-10-19T02:53:20.368Z,11.57
2017-10-19T02:55:48.233Z,10.68
2017-10-19T02:58:16.105Z,12.02
2017-10-19T03:00:43.965Z,12.48
2017-10-19T03:03:11.845Z,12.30
2017-10-19T03:05:39.701Z,12.02
2017-10-19T03:08:07.568Z,12.60
2017-10-19T03:10:35.436Z,13.60
2017-10-19T03:13:03.304Z,12.35
2017-10-19T03:15:31.170Z,13.20
2017-10-19T03:17:59.038Z,12.40
2017-10-19T03:20:26.905Z,11.57
2017-10-19T03:22:54.772Z,9.98
2017-10-19T03:25:22.537Z,12.02
2017-10-19T03:27:50.404Z,11.40
2017-10-19T03:30:18.274Z,13.62
2017-10-19T03:32:46.139Z,11.65
2017-10-19T03:35:14.006Z,11.00
2017-10-19T03:37:41.873Z,12.02
2017-10-19T03:40:09.741Z,12.20
2017-10-19T03:42:37.505Z,12.85
2017-10-19T03:45:05.270Z,11.60
2017-10-19T03:47:33.138Z,11.57
2017-10-19T03:50:01.006Z,12.70
2017-10-19T03:52:28.872Z,13.68
2017-10-19T03:54:56.743Z,13.80
2017-10-19T03:57:24.607Z,12.55
2017-10-19T03:59:52.474Z,12.52
2017-10-19T04:02:20.345Z,13.30
2017-10-19T04:04:48.212Z,12.80
2017-10-19T04:07:16.078Z,11.38
2017-10-19T04:09:43.943Z,10.60
2017-10-19T04:12:11.815Z,10.02
2017-10-19T04:14:39.683Z,11.12
2017-10-19T04:17:07.654Z,10.90
2017-10-19T04:19:35.518Z,10.77
2017-10-19T04:22:03.383Z,12.35
2017-10-19T04:24:31.250Z,12.52
2017-10-19T04:26:59.117Z,12.82
2017-10-19T04:29:26.984Z,13.27
2017-10-19T04:31:55.774Z,13.10
2017-10-19T04:34:23.640Z,11.38
2017-10-19T04:36:51.508Z,16.00
2017-10-19T04:39:19.375Z,14.43
2017-10-19T04:41:47.244Z,12.88
2017-10-19T04:44:15.110Z,13.70
2017-10-19T04:46:42.977Z,12.52
2017-10-19T04:49:10.851Z,13.18
2017-10-19T04:51:38.712Z,13.52
2017-10-19T04:54:06.578Z,13.40
2017-10-19T04:56:34.446Z,12.18
2017-10-19T04:59:02.314Z,12.55
2017-10-19T05:01:30.181Z,11.65
2017-10-19T05:03:58.049Z,13.30
2017-10-19T05:06:25.913Z,13.43
2017-10-19T05:08:53.783Z,13.05
2017-10-19T05:11:21.650Z,12.70
2017-10-19T05:13:49.523Z,13.35
2017-10-19T05:16:17.384Z,13.07
2017-10-19T05:18:45.254Z,12.93
2017-10-19T05:21:13.120Z,11.90
2017-10-19T05:23:40.988Z,10.75
2017-10-19T05:26:08.855Z,12.68
2017-10-19T05:28:36.724Z,12.88
2017-10-19T05:31:04.591Z,13.60
2017-10-19T05:33:32.456Z,12.68
2017-10-19T05:36:00.324Z,14.13
2017-10-19T05:38:28.395Z,13.40
2017-10-19T05:40:56.264Z,14.65
2017-10-19T05:43:24.062Z,14.35
2017-10-19T05:45:52.715Z,14.30
2017-10-19T05:48:20.584Z,14.10
2017-10-19T05:50:48.452Z,13.43
2017-10-19T05:53:16.316Z,13.20
2017-10-19T05:55:44.184Z,12.68
2017-10-19T05:58:12.051Z,12.18
2017-10-19T06:00:39.920Z,11.32
2017-10-19T06:03:07.792Z,11.25
2017-10-19T06:05:35.653Z,11.73
2017-10-19T06:08:03.521Z,11.55
2017-10-19T06:10:31.388Z,11.77
2017-10-19T06:12:59.255Z,12.68
2017-10-19T06:15:27.123Z,11.98
2017-10-19T06:17:54.928Z,13.60
2017-10-19T06:20:23.573Z,12.68
2017-10-19T06:22:51.441Z,12.27
2017-10-19T06:25:19.308Z,12.23
2017-10-19T06:27:47.175Z,12.75
2017-10-19T06:30:15.042Z,12.50
2017-10-19T06:32:42.910Z,14.23
2017-10-19T06:35:10.777Z,13.75
2017-10-19T06:37:38.644Z,14.27
2017-10-19T06:40:06.512Z,12.75
2017-10-19T06:42:34.379Z,11.50
2017-10-19T06:45:02.251Z,10.48
2017-10-19T06:47:30.115Z,11.12
2017-10-19T06:49:57.981Z,9.95
2017-10-19T06:52:25.850Z,11.60
2017-10-19T06:54:53.717Z,13.95
2017-10-19T06:57:21.583Z,13.65
2017-10-19T06:59:49.460Z,13.02
2017-10-19T07:02:17.317Z,13.13
2017-10-19T07:04:45.186Z,11.52
2017-10-19T07:07:13.052Z,11.80
2017-10-19T07:09:40.941Z,13.50
2017-10-19T07:12:08.788Z,14.45
2017-10-19T07:14:36.655Z,13.80
2017-10-19T07:17:04.526Z,12.35
2017-10-19T07:19:32.392Z,13.62
2017-10-19T07:22:00.257Z,13.18
2017-10-19T07:24:28.129Z,13.73
2017-10-19T07:26:55.995Z,15.50
2017-10-19T07:29:23.863Z,15.18
2017-10-19T07:31:51.727Z,15.30
2017-10-19T07:34:19.603Z,15.02
2017-10-19T07:36:47.461Z,14.85
2017-10-19T07:39:15.328Z,14.20
2017-10-19T07:41:43.195Z,14.35
2017-10-19T07:44:11.063Z,17.33
2017-10-19T07:46:38.929Z,15.80
2017-10-19T07:49:06.796Z,16.75
2017-10-19T07:51:34.665Z,17.58
2017-10-19T07:54:02.533Z,16.80
2017-10-19T07:56:30.398Z,16.75
2017-10-19T07:58:58.267Z,17.83
2017-10-19T08:01:26.135Z,16.42
2017-10-19T08:03:54.001Z,17.00
2017-10-19T08:06:21.863Z,16.30
2017-10-19T08:08:49.736Z,15.75
2017-10-19T08:11:17.603Z,15.35
2017-10-19T08:13:45.470Z,15.88
2017-10-19T08:16:13.338Z,15.98
2017-10-19T08:18:41.204Z,13.90
2017-10-19T08:21:09.071Z,14.43
2017-10-19T08:23:36.939Z,15.20
2017-10-19T08:26:04.806Z,14.57
2017-10-19T08:28:32.673Z,13.60
2017-10-19T08:31:00.542Z,15.35
2017-10-19T08:33:28.409Z,13.13
2017-10-19T08:35:56.281Z,15.25
2017-10-19T08:38:24.143Z,13.65
2017-10-19T08:40:52.012Z,13.02
2017-10-19T08:43:19.878Z,14.45
2017-10-19T08:45:47.745Z,13.93
2017-10-19T08:48:15.613Z,13.93
2017-10-19T08:50:43.480Z,12.52
2017-10-19T08:53:11.347Z,12.73
2017-10-19T08:55:39.147Z,13.50
2017-10-19T08:58:07.626Z,14.40
2017-10-19T09:00:36.177Z,13.38
2017-10-19T09:03:04.047Z,12.77
2017-10-19T09:05:31.913Z,14.20
2017-10-19T09:07:59.779Z,14.18
2017-10-19T09:10:27.647Z,14.43
2017-10-19T09:12:55.514Z,14.20
2017-10-19T09:15:23.383Z,13.60
2017-10-19T09:17:51.249Z,13.35
2017-10-19T09:20:19.117Z,13.85
2017-10-19T09:22:46.986Z,12.85
2017-10-19T09:25:14.851Z,12.88
2017-10-19T09:27:42.718Z,14.23
2017-10-19T09:30:10.586Z,14.43
2017-10-19T09:32:38.458Z,13.68
2017-10-19T09:35:06.320Z,15.07
2017-10-19T09:37:34.187Z,14.70
2017-10-19T09:40:02.055Z,14.75
2017-10-19T09:42:29.922Z,15.32
2017-10-19T09:44:57.791Z,16.15
2017-10-19T09:47:25.657Z,16.58
2017-10-19T09:49:53.525Z,17.75
2017-10-19T09:52:21.392Z,17.15
2017-10-19T09:54:49.260Z,17.55
2017-10-19T09:57:17.126Z,18.23
2017-10-19T09:59:44.993Z,17.70
2017-10-19T10:02:12.864Z,17.33
2017-10-19T10:04:40.728Z,17.15
2017-10-19T10:07:08.595Z,16.62
2017-10-19T10:09:36.466Z,17.20
2017-10-19T10:12:04.329Z,17.75
2017-10-19T10:14:32.198Z,15.85
2017-10-19T10:17:00.070Z,17.25
2017-10-19T10:19:27.932Z,18.48
2017-10-19T10:21:55.800Z,18.60
2017-10-19T10:24:23.667Z,17.50
2017-10-19T10:26:51.534Z,17.70
2017-10-19T10:29:19.404Z,17.52
2017-10-19T10:31:47.276Z,17.62
2017-10-19T10:34:15.141Z,18.67
2017-10-19T10:36:43.003Z,19.55
2017-10-19T10:39:10.875Z,18.83
2017-10-19T10:41:38.742Z,17.73
2017-10-19T10:44:06.609Z,18.35
2017-10-19T10:46:34.473Z,17.65
2017-10-19T10:49:02.320Z,18.58
2017-10-19T10:51:30.208Z,18.90
2017-10-19T10:53:58.075Z,17.83
2017-10-19T10:56:25.942Z,18.80
2017-10-19T10:58:53.809Z,18.67
2017-10-19T11:01:21.676Z,18.08
2017-10-19T11:03:49.544Z,17.45
2017-10-19T11:06:17.413Z,16.27
2017-10-19T11:08:45.279Z,15.98
2017-10-19T11:11:13.146Z,17.17
2017-10-19T11:13:41.012Z,18.00
2017-10-19T11:16:08.747Z,18.75
2017-10-19T11:18:36.543Z,17.77
2017-10-19T11:21:04.412Z,16.00
2017-10-19T11:23:32.277Z,16.70
2017-10-19T11:26:00.146Z,15.68
2017-10-19T11:28:28.012Z,17.92
2017-10-19T11:30:55.879Z,17.73
2017-10-19T11:33:23.754Z,17.08
2017-10-19T11:35:51.623Z,17.42
2017-10-19T11:38:19.481Z,15.88
2017-10-19T11:40:47.352Z,17.70
2017-10-19T11:43:15.217Z,17.52
2017-10-19T11:45:43.083Z,17.15
2017-10-19T11:48:10.953Z,17.62
2017-10-19T11:50:38.825Z,17.40
2017-10-19T11:53:06.686Z,16.60
2017-10-19T11:55:34.552Z,17.67
2017-10-19T11:58:02.420Z,17.05
2017-10-19T12:00:30.287Z,17.30
2017-10-19T12:02:58.154Z,17.73
2017-10-19T12:05:26.023Z,18.02
2017-10-19T12:07:53.888Z,17.85
2017-10-19T12:10:21.756Z,17.52
2017-10-19T12:12:49.623Z,17.20
2017-10-19T12:15:17.491Z,16.55
2017-10-19T12:17:45.358Z,16.20
2017-10-19T12:20:13.226Z,17.23
2017-10-19T12:22:41.093Z,16.02
2017-10-19T12:25:08.961Z,15.63
2017-10-19T12:27:36.828Z,14.73
2017-10-19T12:30:04.697Z,13.23
2017-10-19T12:32:32.563Z,13.55
2017-10-19T12:35:00.439Z,13.35
2017-10-19T12:37:28.297Z,13.02
2017-10-19T12:39:56.164Z,13.15
2017-10-19T12:42:24.032Z,13.65
2017-10-19T12:44:51.905Z,13.07
2017-10-19T12:47:19.766Z,12.45
2017-10-19T12:49:47.633Z,12.63
2017-10-19T12:52:15.500Z,12.57
2017-10-19T12:54:43.367Z,12.25
2017-10-19T12:57:11.235Z,11.35
2017-10-19T12:59:39.102Z,10.85
2017-10-19T13:02:06.969Z,11.23
2017-10-19T13:04:34.838Z,11.75
2017-10-19T13:07:02.738Z,12.98
2017-10-19T13:09:31.392Z,11.73
2017-10-19T13:11:59.258Z,11.02
2017-10-19T13:14:27.126Z,11.93
2017-10-19T13:16:55.019Z,10.05
2017-10-19T13:19:23.681Z,10.38
2017-10-19T13:21:51.548Z,10.73
2017-10-19T13:24:19.414Z,10.13
2017-10-19T13:26:47.283Z,10.50
2017-10-19T13:29:15.148Z,9.90
2017-10-19T13:31:43.016Z,9.85
2017-10-19T13:34:10.884Z,10.02
2017-10-19T13:36:38.751Z,10.55
2017-10-19T13:39:06.618Z,9.93
2017-10-19T13:41:34.485Z,9.45
2017-10-19T13:44:02.358Z,8.25
2017-10-19T13:46:30.223Z,9.50
2017-10-19T13:48:58.089Z,8.82
2017-10-19T13:51:25.956Z,8.65
2017-10-19T13:53:53.824Z,7.72
2017-10-19T13:56:21.694Z,7.18
2017-10-19T13:58:49.559Z,6.82
2017-10-19T14:01:17.425Z,6.78
2017-10-19T14:03:45.293Z,7.25
2017-10-19T14:06:13.158Z,6.60
2017-10-19T14:08:41.026Z,7.65
2017-10-19T14:11:08.897Z,7.72
2017-10-19T14:13:36.760Z,6.93
2017-10-19T14:16:04.628Z,11.88
2017-10-19T14:18:32.495Z,8.55
2017-10-19T14:21:00.362Z,8.60
2017-10-19T14:23:28.230Z,7.85
2017-10-19T14:25:56.098Z,7.50
2017-10-19T14:28:23.969Z,10.00
2017-10-19T14:30:51.934Z,9.25
2017-10-19T14:33:19.801Z,6.18
2017-10-19T14:35:47.667Z,6.78
2017-10-19T14:38:15.535Z,6.47
2017-10-19T14:40:43.403Z,6.45
2017-10-19T14:43:11.270Z,6.35
2017-10-19T14:45:39.037Z,6.25
2017-10-19T14:48:06.902Z,6.20
2017-10-19T14:50:34.769Z,7.15
2017-10-19T14:53:02.638Z,6.60
2017-10-19T14:55:30.503Z,6.35
2017-10-19T14:57:58.299Z,6.75
2017-10-19T15:00:26.136Z,6.40
2017-10-19T15:02:54.004Z,8.75
2017-10-19T15:05:21.871Z,7.10
2017-10-19T15:07:49.739Z,6.95
2017-10-19T15:10:17.624Z,6.45
2017-10-19T15:12:45.473Z,6.40
2017-10-19T15:15:13.341Z,6.97
2017-10-19T15:17:41.208Z,7.00
2017-10-19T15:20:09.076Z,7.00
2017-10-19T15:22:36.943Z,9.40
2017-10-19T15:25:04.810Z,11.93
2017-10-19T15:27:32.677Z,9.55
2017-10-19T15:30:00.546Z,8.30
2017-10-19T15:32:28.412Z,9.30
2017-10-19T15:34:56.279Z,8.40
2017-10-19T15:37:24.146Z,9.50
2017-10-19T15:39:52.013Z,6.78
2017-10-19T15:42:19.882Z,7.50
2017-10-19T15:44:47.751Z,7.53
2017-10-19T15:47:15.616Z,8.07
2017-10-19T15:49:43.483Z,7.53
2017-10-19T15:52:11.197Z,7.87
2017-10-19T15:54:39.687Z,8.23
2017-10-19T15:57:07.496Z,8.00
2017-10-19T15:59:35.219Z,8.88
2017-10-19T16:02:02.946Z,8.25
2017-10-19T16:04:30.658Z,9.75
2017-10-19T16:06:58.378Z,9.73
2017-10-19T16:09:26.114Z,9.93
2017-10-19T16:11:53.831Z,9.45
2017-10-19T16:14:21.645Z,11.23
2017-10-19T16:16:49.444Z,10.10
2017-10-19T16:19:17.994Z,9.43
2017-10-19T16:21:45.864Z,9.43
2017-10-19T16:24:13.728Z,9.85
2017-10-19T16:26:41.443Z,8.82
2017-10-19T16:29:09.154Z,8.98
2017-10-19T16:31:36.863Z,9.27
2017-10-19T16:34:05.505Z,8.90
2017-10-19T16:36:33.215Z,8.73
2017-10-19T16:39:01.695Z,9.23
2017-10-19T16:41:30.234Z,8.85
2017-10-19T16:43:57.950Z,8.40
2017-10-19T16:46:25.762Z,8.90
2017-10-19T16:48:53.630Z,9.70
2017-10-19T16:51:21.346Z,9.80
2017-10-19T16:53:49.069Z,10.13
2017-10-19T16:56:16.783Z,13.13
2017-10-19T16:58:44.498Z,14.07
2017-10-19T17:01:12.351Z,9.60
2017-10-19T17:03:40.062Z,9.50
2017-10-19T17:06:08.546Z,10.00
2017-10-19T17:08:37.112Z,9.35
2017-10-19T17:11:05.769Z,8.98
2017-10-19T17:13:33.495Z,9.00
2017-10-19T17:16:01.302Z,11.90
2017-10-19T17:18:29.168Z,12.48
2017-10-19T17:20:56.883Z,9.90
2017-10-19T17:23:24.596Z,9.65
2017-10-19T17:25:52.359Z,8.88
2017-10-19T17:28:20.081Z,9.73
2017-10-19T17:30:47.803Z,9.45
2017-10-19T17:33:15.530Z,9.45
2017-10-19T17:35:43.416Z,10.07
2017-10-19T17:38:11.283Z,10.15
2017-10-19T17:40:39.151Z,9.45
2017-10-19T17:43:06.870Z,10.07
2017-10-19T17:45:34.680Z,10.05
2017-10-19T17:48:02.548Z,10.05
2017-10-19T17:50:30.415Z,9.48
2017-10-19T17:52:58.215Z,8.25
2017-10-19T17:55:26.866Z,9.45
2017-10-19T17:57:54.659Z,8.75
2017-10-19T18:00:22.398Z,9.65
2017-10-19T18:02:50.195Z,8.70
2017-10-19T18:05:18.848Z,10.20
2017-10-19T18:07:46.679Z,8.50
2017-10-19T18:10:14.468Z,8.65
2017-10-19T18:12:42.348Z,10.45
2017-10-19T18:15:10.215Z,10.32
2017-10-19T18:17:38.082Z,12.05
2017-10-19T18:20:05.949Z,12.48
2017-10-19T18:22:33.817Z,16.02
2017-10-19T18:25:01.539Z,15.73
2017-10-19T18:27:29.251Z,15.85
2017-10-19T18:29:56.966Z,14.05
2017-10-19T18:32:24.683Z,10.48
2017-10-19T18:34:52.406Z,9.77
2017-10-19T18:37:20.118Z,10.45
2017-10-19T18:39:47.835Z,9.82
2017-10-19T18:42:15.631Z,10.20
2017-10-19T18:44:44.235Z,9.40
2017-10-19T18:47:15.704Z,9.05
2017-10-19T18:49:47.798Z,9.63
2017-10-19T18:52:19.857Z,9.13
2017-10-19T18:54:54.739Z,9.63
2017-10-19T18:57:28.348Z,9.52
2017-10-19T19:00:01.557Z,9.55
2017-10-19T19:02:33.071Z,8.68
2017-10-19T19:05:06.366Z,10.25
2017-10-19T19:07:40.726Z,10.40
2017-10-19T19:10:17.089Z,8.75
2017-10-19T19:12:49.854Z,10.18
2017-10-19T19:15:21.385Z,9.30
2017-10-19T19:17:53.471Z,10.52
2017-10-19T19:20:25.375Z,9.65
2017-10-19T19:22:53.267Z,8.82
2017-10-19T19:25:20.989Z,9.55
2017-10-19T19:27:50.151Z,9.63
2017-10-19T19:30:18.018Z,10.85
2017-10-19T19:32:45.763Z,9.88
2017-10-19T19:35:13.477Z,9.32
2017-10-19T19:37:42.103Z,8.95
2017-10-19T19:40:09.862Z,9.15
2017-10-19T19:42:37.587Z,8.65
2017-10-19T19:45:05.306Z,9.10
2017-10-19T19:47:33.020Z,9.07
2017-10-19T19:50:01.511Z,9.15
2017-10-19T19:52:30.012Z,9.45
2017-10-19T19:54:57.818Z,10.25
2017-10-19T19:57:25.559Z,10.63
2017-10-19T19:59:53.283Z,10.82
2017-10-19T20:02:21.931Z,10.20
2017-10-19T20:04:49.801Z,10.32
2017-10-19T20:07:17.515Z,11.93
2017-10-19T20:09:45.328Z,11.07
2017-10-19T20:12:13.038Z,10.15
2017-10-19T20:14:41.526Z,11.48
2017-10-19T20:17:09.256Z,9.77
2017-10-19T20:19:37.005Z,11.38
2017-10-19T20:22:04.743Z,10.52
2017-10-19T20:24:32.476Z,10.55
2017-10-19T20:27:00.970Z,10.70
2017-10-19T20:29:28.706Z,10.60
2017-10-19T20:31:56.444Z,9.45
2017-10-19T20:34:24.174Z,9.93
2017-10-19T20:36:51.970Z,10.10
2017-10-19T20:39:19.707Z,11.02
2017-10-19T20:41:47.443Z,10.02
2017-10-19T20:44:16.087Z,10.43
2017-10-19T20:46:43.955Z,11.15
2017-10-19T20:49:11.821Z,10.18
2017-10-19T20:51:39.686Z,9.60
2017-10-19T20:54:07.416Z,9.10
2017-10-19T20:56:35.150Z,10.73
2017-10-19T20:59:03.642Z,10.55
2017-10-19T21:01:32.139Z,10.70
2017-10-19T21:03:59.955Z,11.68
2017-10-19T21:06:27.812Z,12.37
2017-10-19T21:08:55.569Z,11.10
2017-10-19T21:11:23.287Z,9.80
2017-10-19T21:13:51.764Z,11.20
2017-10-19T21:16:20.279Z,8.80
2017-10-19T21:18:48.070Z,9.90
2017-10-19T21:21:15.936Z,9.10
2017-10-19T21:23:43.805Z,10.25
2017-10-19T21:26:11.534Z,8.68
2017-10-19T21:28:40.176Z,9.00
2017-10-19T21:31:07.904Z,9.95
2017-10-19T21:33:35.620Z,8.55
2017-10-19T21:36:04.126Z,9.48
2017-10-19T21:38:31.837Z,9.90
2017-10-19T21:40:59.560Z,10.07
2017-10-19T21:43:27.290Z,9.35
2017-10-19T21:45:55.773Z,9.63
2017-10-19T21:48:24.423Z,10.77
2017-10-19T21:50:52.155Z,10.13
2017-10-19T21:53:20.057Z,10.77
2017-10-19T21:55:47.923Z,9.65
2017-10-19T21:58:15.790Z,9.95
2017-10-19T22:00:43.592Z,9.45
2017-10-19T22:03:12.082Z,9.27
2017-10-19T22:05:40.615Z,10.38
2017-10-19T22:08:08.488Z,10.13
2017-10-19T22:10:36.355Z,10.05
2017-10-19T22:13:04.224Z,9.55
2017-10-19T22:15:32.090Z,9.43
2017-10-19T22:17:59.957Z,10.80
2017-10-19T22:20:27.824Z,10.48
2017-10-19T22:22:55.563Z,9.75
2017-10-19T22:25:23.291Z,10.00
2017-10-19T22:27:51.783Z,9.32
2017-10-19T22:30:20.271Z,10.70
2017-10-19T22:32:47.981Z,9.10
2017-10-19T22:35:15.699Z,10.10
2017-10-19T22:37:43.406Z,8.60
2017-10-19T22:40:11.129Z,9.85
2017-10-19T22:42:38.840Z,9.90
2017-10-19T22:45:07.342Z,8.88
2017-10-19T22:47:35.058Z,8.63
2017-10-19T22:50:02.770Z,9.43
2017-10-19T22:52:31.293Z,8.18
2017-10-19T22:54:59.002Z,8.30
2017-10-19T22:57:26.727Z,8.35
2017-10-19T22:59:54.441Z,7.22
2017-10-19T23:02:22.189Z,8.27
2017-10-19T23:04:49.940Z,7.68
2017-10-19T23:07:17.663Z,7.47
2017-10-19T23:09:45.387Z,9.27
2017-10-19T23:12:13.109Z,9.15
2017-10-19T23:14:40.839Z,8.40
2017-10-19T23:17:09.335Z,9.90
2017-10-19T23:19:37.827Z,7.95
2017-10-19T23:22:05.542Z,9.63
2017-10-19T23:24:33.263Z,9.25
2017-10-19T23:27:00.989Z,11.50
2017-10-19T23:29:28.928Z,9.98
2017-10-19T23:31:56.795Z,9.68
2017-10-19T23:34:24.662Z,8.43
2017-10-19T23:36:52.463Z,8.50
2017-10-19T23:39:21.042Z,9.27
2017-10-19T23:41:48.809Z,7.82
2017-10-19T23:44:17.307Z,8.20
2017-10-19T23:46:45.945Z,10.02
2017-10-19T23:49:13.810Z,10.02
2017-10-19T23:51:41.681Z,8.68
2017-10-19T23:54:09.549Z,10.13
2017-10-19T23:56:37.419Z,9.32
2017-10-19T23:59:05.147Z,10.43
